createdAt,value
2023-03-11T00:00:25.577Z,4.60
2023-03-11T00:03:14.300Z,4.80
2023-03-11T00:05:43.986Z,4.70
2023-03-11T00:08:16.720Z,4.50
2023-03-11T00:10:45.740Z,4.20
2023-03-11T00:13:14.873Z,4.90
2023-03-11T00:15:43.531Z,4.90
2023-03-11T00:18:11.774Z,4.70
2023-03-11T00:20:40.664Z,4.00
2023-03-11T00:23:09.158Z,3.90
2023-03-11T00:25:37.670Z,4.20
2023-03-11T00:28:07.506Z,4.00
2023-03-11T00:30:35.597Z,4.00
2023-03-11T00:33:04.181Z,4.90
2023-03-11T00:35:33.675Z,4.40
2023-03-11T00:38:04.039Z,4.60
2023-03-11T00:40:33.088Z,5.00
2023-03-11T00:43:01.274Z,4.40
2023-03-11T00:45:29.875Z,4.60
2023-03-11T00:47:57.746Z,4.90
2023-03-11T00:50:27.574Z,5.60
2023-03-11T00:52:55.637Z,5.20
2023-03-11T00:55:25.284Z,5.40
2023-03-11T00:57:57.580Z,5.70
2023-03-11T01:00:26.308Z,5.30
2023-03-11T01:02:54.718Z,5.30
2023-03-11T01:05:24.268Z,5.30
2023-03-11T01:07:52.089Z,5.50
2023-03-11T01:10:20.329Z,5.50
2023-03-11T01:12:48.618Z,5.00
2023-03-11T01:15:21.862Z,5.40
2023-03-11T01:17:49.849Z,5.30
2023-03-11T01:20:17.906Z,5.00
2023-03-11T01:22:45.855Z,4.40
2023-03-11T01:25:14.565Z,4.30
2023-03-11T01:27:42.699Z,4.20
2023-03-11T01:30:13.331Z,4.20
2023-03-11T01:32:41.155Z,3.90
2023-03-11T01:35:10.842Z,4.10
2023-03-11T01:37:38.783Z,4.10
2023-03-11T01:40:07.853Z,3.40
2023-03-11T01:42:35.803Z,3.20
2023-03-11T01:47:59.864Z,3.90
2023-03-11T01:50:31.679Z,3.30
2023-03-11T01:52:59.558Z,3.40
2023-03-11T01:55:28.668Z,3.00
2023-03-11T01:57:57.040Z,3.50
2023-03-11T02:00:25.037Z,3.50
2023-03-11T02:02:53.779Z,3.10
2023-03-11T02:05:22.693Z,3.00
2023-03-11T02:07:51.428Z,2.90
2023-03-11T02:10:19.820Z,3.10
2023-03-11T02:12:49.009Z,3.00
2023-03-11T02:15:16.939Z,2.80
2023-03-11T02:17:44.880Z,2.60
2023-03-11T02:20:12.695Z,2.20
2023-03-11T02:22:41.736Z,2.20
2023-03-11T02:25:18.597Z,2.00
2023-03-11T02:27:49.315Z,2.10
2023-03-11T02:30:18.255Z,2.00
2023-03-11T02:32:49.390Z,2.00
2023-03-11T02:35:17.467Z,2.00
2023-03-11T02:37:50.363Z,2.00
2023-03-11T02:40:24.341Z,2.20
2023-03-11T02:42:54.392Z,1.70
2023-03-11T02:45:24.629Z,1.70
2023-03-11T02:47:53.080Z,1.40
2023-03-11T02:50:21.174Z,1.40
2023-03-11T02:52:49.713Z,1.50
2023-03-11T02:55:18.350Z,1.20
2023-03-11T02:57:47.293Z,0.90
2023-03-11T03:00:16.925Z,1.20
2023-03-11T03:02:45.666Z,1.00
2023-03-11T03:05:14.506Z,0.90
2023-03-11T03:07:42.435Z,1.00
2023-03-11T03:10:10.771Z,1.10
2023-03-11T03:12:38.602Z,1.00
2023-03-11T03:15:07.035Z,1.10
2023-03-11T03:17:34.976Z,1.10
2023-03-11T03:20:06.334Z,1.00
2023-03-11T03:22:34.204Z,1.00
2023-03-11T03:25:02.121Z,0.80
2023-03-11T03:27:30.730Z,0.80
2023-03-11T03:29:58.491Z,0.70
2023-03-11T03:32:43.933Z,0.80
2023-03-11T03:35:12.228Z,0.60
2023-03-11T03:37:40.219Z,0.70
2023-03-11T03:40:08.973Z,0.50
2023-03-11T03:42:37.382Z,0.50
2023-03-11T03:45:06.501Z,0.70
2023-03-11T03:47:35.068Z,0.60
2023-03-11T03:50:03.883Z,0.70
2023-03-11T03:52:31.742Z,0.80
2023-03-11T03:54:59.935Z,0.70
2023-03-11T03:57:28.787Z,0.90
2023-03-11T03:59:56.634Z,0.60
2023-03-11T04:02:24.726Z,0.60
2023-03-11T04:04:53.042Z,0.50
2023-03-11T04:07:20.876Z,2.60
2023-03-11T04:09:48.832Z,6.20
2023-03-11T04:12:17.788Z,6.10
2023-03-11T04:14:45.663Z,7.80
2023-03-11T04:17:14.041Z,9.20
2023-03-11T04:19:41.850Z,8.80
2023-03-11T04:22:09.736Z,8.20
2023-03-11T04:24:37.636Z,7.50
2023-03-11T04:27:05.448Z,7.80
2023-03-11T04:29:33.338Z,7.00
2023-03-11T04:32:01.088Z,7.40
2023-03-11T04:34:28.880Z,7.50
2023-03-11T04:36:56.695Z,7.20
2023-03-11T04:39:24.811Z,7.30
2023-03-11T04:41:52.601Z,6.90
2023-03-11T04:44:20.545Z,6.30
2023-03-11T04:46:48.366Z,6.00
2023-03-11T04:49:16.223Z,6.90
2023-03-11T04:51:44.001Z,5.60
2023-03-11T04:54:11.902Z,5.20
2023-03-11T04:56:39.761Z,5.10
2023-03-11T04:59:07.660Z,4.20
2023-03-11T05:01:35.567Z,4.20
2023-03-11T05:04:03.719Z,4.00
2023-03-11T05:06:31.659Z,3.50
2023-03-11T05:08:59.500Z,4.00
2023-03-11T05:11:27.471Z,3.10
2023-03-11T05:13:55.326Z,3.00
2023-03-11T05:16:23.457Z,3.40
2023-03-11T05:18:51.393Z,3.00
2023-03-11T05:21:19.292Z,3.20
2023-03-11T05:23:47.227Z,3.90
2023-03-11T05:26:15.280Z,4.10
2023-03-11T05:28:43.200Z,3.90
2023-03-11T05:31:11.189Z,4.10
2023-03-11T05:33:39.184Z,4.20
2023-03-11T05:36:08.490Z,4.70
2023-03-11T05:38:37.106Z,4.30
2023-03-11T05:41:06.514Z,4.70
2023-03-11T05:43:34.425Z,4.00
2023-03-11T05:46:02.252Z,4.30
2023-03-11T05:48:30.148Z,4.70
2023-03-11T05:50:58.316Z,5.30
2023-03-11T05:53:26.229Z,6.10
2023-03-11T05:55:57.883Z,5.20
2023-03-11T05:58:25.854Z,4.60
2023-03-11T06:00:54.243Z,5.20
2023-03-11T06:03:22.718Z,5.10
2023-03-11T06:05:51.106Z,5.10
2023-03-11T06:08:19.659Z,5.60
2023-03-11T06:10:49.010Z,5.40
2023-03-11T06:13:16.991Z,6.10
2023-03-11T06:15:46.114Z,7.40
2023-03-11T06:18:14.108Z,5.60
2023-03-11T06:20:41.998Z,5.00
2023-03-11T06:23:09.878Z,4.90
2023-03-11T06:25:38.127Z,5.50
2023-03-11T06:28:06.048Z,4.80
2023-03-11T06:30:34.066Z,4.60
2023-03-11T06:33:02.028Z,5.00
2023-03-11T06:35:30.185Z,4.80
2023-03-11T06:37:58.350Z,5.30
2023-03-11T06:40:26.150Z,4.90
2023-03-11T06:42:53.953Z,5.70
2023-03-11T06:45:22.041Z,4.30
2023-03-11T06:47:50.200Z,4.40
2023-03-11T06:50:18.391Z,5.30
2023-03-11T06:52:46.336Z,4.80
2023-03-11T06:55:14.206Z,4.80
2023-03-11T07:01:59.219Z,4.90
2023-03-11T07:04:27.398Z,4.30
2023-03-11T07:06:55.812Z,4.40
2023-03-11T07:09:25.404Z,4.40
2023-03-11T07:11:53.935Z,5.10
2023-03-11T07:14:22.119Z,4.50
2023-03-11T07:16:50.173Z,5.40
2023-03-11T07:19:18.054Z,5.00
2023-03-11T07:21:45.932Z,4.60
2023-03-11T07:24:15.139Z,4.50
2023-03-11T07:26:44.478Z,5.50
2023-03-11T07:29:12.674Z,7.00
2023-03-11T07:31:41.598Z,6.60
2023-03-11T07:34:12.263Z,5.30
2023-03-11T07:36:42.086Z,5.60
2023-03-11T07:39:14.883Z,5.90
2023-03-11T07:41:45.720Z,5.70
2023-03-11T07:44:14.448Z,5.70
2023-03-11T07:46:42.427Z,6.00
2023-03-11T07:49:10.987Z,5.60
2023-03-11T07:51:41.055Z,6.10
2023-03-11T07:54:10.323Z,4.90
2023-03-11T07:56:38.498Z,5.20
2023-03-11T07:59:06.489Z,5.60
2023-03-11T08:01:40.699Z,5.40
2023-03-11T08:04:11.355Z,5.60
2023-03-11T08:06:41.775Z,4.50
2023-03-11T08:09:10.030Z,4.30
2023-03-11T08:11:37.927Z,4.60
2023-03-11T08:14:06.402Z,4.20
2023-03-11T08:16:34.595Z,4.50
2023-03-11T08:19:02.514Z,3.90
2023-03-11T08:21:32.443Z,3.40
2023-03-11T08:24:01.493Z,3.70
2023-03-11T08:26:30.222Z,3.70
2023-03-11T08:28:58.824Z,3.50
2023-03-11T08:31:31.145Z,3.40
2023-03-11T08:34:01.509Z,3.30
2023-03-11T08:36:29.800Z,3.10
2023-03-11T08:38:57.918Z,3.60
2023-03-11T08:41:26.410Z,3.50
2023-03-11T08:43:54.642Z,3.60
2023-03-11T08:46:24.991Z,4.70
2023-03-11T08:48:58.639Z,4.30
2023-03-11T08:51:28.973Z,3.50
2023-03-11T08:53:57.173Z,3.30
2023-03-11T08:56:25.289Z,3.30
2023-03-11T08:58:53.551Z,3.40
2023-03-11T09:01:23.143Z,3.50
2023-03-11T09:03:51.638Z,3.00
2023-03-11T09:06:20.044Z,3.30
2023-03-11T09:08:48.981Z,3.20
2023-03-11T09:11:18.169Z,3.30
2023-03-11T09:13:46.195Z,3.90
2023-03-11T09:16:18.704Z,3.30
2023-03-11T09:18:46.763Z,3.80
2023-03-11T09:21:14.869Z,3.30
2023-03-11T09:23:44.484Z,4.20
2023-03-11T09:26:13.316Z,3.40
2023-03-11T09:28:41.942Z,4.00
2023-03-11T09:31:10.092Z,3.80
2023-03-11T09:33:38.838Z,3.80
2023-03-11T09:36:07.818Z,3.50
2023-03-11T09:38:35.769Z,4.10
2023-03-11T09:41:03.962Z,4.00
2023-03-11T09:43:52.168Z,4.00
2023-03-11T09:46:20.293Z,3.80
2023-03-11T09:49:17.312Z,3.80
2023-03-11T09:51:57.709Z,3.90
2023-03-11T09:54:33.320Z,3.70
2023-03-11T09:57:02.752Z,3.50
2023-03-11T09:59:31.906Z,3.80
2023-03-11T10:02:00.639Z,3.30
2023-03-11T10:04:55.085Z,3.90
2023-03-11T10:07:27.270Z,3.60
2023-03-11T10:09:59.596Z,3.90
2023-03-11T10:12:44.704Z,4.10
2023-03-11T10:15:16.007Z,3.80
2023-03-11T10:18:05.167Z,3.20
2023-03-11T10:20:42.237Z,3.30
2023-03-11T10:23:13.347Z,3.60
2023-03-11T10:26:00.128Z,3.80
2023-03-11T10:28:33.065Z,3.70
2023-03-11T10:31:20.457Z,3.30
2023-03-11T10:34:07.138Z,3.10
2023-03-11T10:36:42.370Z,3.10
2023-03-11T10:39:11.266Z,3.40
2023-03-11T10:42:06.027Z,3.60
2023-03-11T10:44:35.419Z,3.60
2023-03-11T10:47:05.230Z,3.30
2023-03-11T10:49:34.241Z,3.90
2023-03-11T10:52:03.538Z,4.20
2023-03-11T10:54:36.047Z,4.20
2023-03-11T10:57:06.204Z,4.00
2023-03-11T10:59:37.692Z,5.00
2023-03-11T11:02:26.376Z,4.90
2023-03-11T11:05:03.796Z,4.90
2023-03-11T11:07:33.701Z,4.10
2023-03-11T11:10:21.319Z,4.40
2023-03-11T11:12:53.823Z,4.60
2023-03-11T11:15:27.913Z,4.50
2023-03-11T11:17:57.897Z,4.50
2023-03-11T11:20:26.687Z,3.90
2023-03-11T11:22:59.036Z,4.10
2023-03-11T11:25:38.143Z,4.80
2023-03-11T11:28:15.461Z,4.60
2023-03-11T11:30:53.513Z,4.60
2023-03-11T11:33:24.174Z,4.00
2023-03-11T11:35:53.817Z,3.80
2023-03-11T11:38:24.203Z,3.50
2023-03-11T11:40:53.153Z,3.50
2023-03-11T11:43:43.121Z,3.40
2023-03-11T11:46:31.678Z,2.90
2023-03-11T11:49:12.476Z,2.70
2023-03-11T11:51:47.679Z,3.10
2023-03-11T11:54:17.650Z,2.20
2023-03-11T11:56:46.163Z,3.20
2023-03-11T11:59:16.944Z,3.00
2023-03-11T12:02:20.699Z,3.00
2023-03-11T12:04:57.110Z,2.60
2023-03-11T12:07:41.344Z,2.30
2023-03-11T12:10:23.436Z,2.70
2023-03-11T12:13:06.080Z,2.30
2023-03-11T12:15:37.263Z,2.40
2023-03-11T12:18:09.852Z,2.50
2023-03-11T12:20:42.487Z,2.50
2023-03-11T12:23:29.662Z,2.20
2023-03-11T12:26:10.852Z,2.30
2023-03-11T12:28:43.908Z,2.40
2023-03-11T12:31:13.364Z,1.90
2023-03-11T12:33:51.810Z,2.10
2023-03-11T12:36:32.463Z,1.80
2023-03-11T12:43:36.465Z,2.10
2023-03-11T12:46:04.149Z,2.30
2023-03-11T12:48:36.135Z,2.20
2023-03-11T12:51:05.333Z,2.10
2023-03-11T12:53:43.214Z,2.10
2023-03-11T12:56:19.289Z,1.80
2023-03-11T12:58:52.154Z,1.70
2023-03-11T13:01:43.823Z,2.70
2023-03-11T13:04:29.451Z,2.00
2023-03-11T13:07:16.683Z,1.80
2023-03-11T13:09:44.235Z,2.30
2023-03-11T13:12:29.465Z,2.60
2023-03-11T13:15:22.386Z,2.60
2023-03-11T13:18:08.046Z,2.40
2023-03-11T13:20:34.845Z,2.10
2023-03-11T13:23:01.699Z,2.00
2023-03-11T13:25:50.513Z,2.00
2023-03-11T13:28:37.466Z,2.90
2023-03-11T13:31:06.117Z,1.70
2023-03-11T13:33:53.106Z,2.10
2023-03-11T13:36:32.555Z,2.50
2023-03-11T13:39:19.655Z,1.90
2023-03-11T13:41:48.409Z,2.00
2023-03-11T13:44:19.170Z,1.80
2023-03-11T13:46:57.859Z,2.30
2023-03-11T13:49:41.675Z,2.10
2023-03-11T13:52:14.471Z,1.60
2023-03-11T13:54:48.176Z,2.10
2023-03-11T13:57:22.592Z,2.50
2023-03-11T13:59:54.961Z,2.40
2023-03-11T14:02:24.563Z,2.20
2023-03-11T14:05:19.384Z,2.10
2023-03-11T14:07:47.557Z,2.20
2023-03-11T14:10:25.335Z,1.80
2023-03-11T14:13:05.373Z,2.20
2023-03-11T14:15:41.067Z,1.90
2023-03-11T14:18:28.403Z,1.40
2023-03-11T14:20:57.525Z,2.10
2023-03-11T14:23:28.597Z,2.10
2023-03-11T14:26:00.743Z,1.50
2023-03-11T14:28:30.567Z,1.80
2023-03-11T14:30:59.230Z,2.30
2023-03-11T14:33:27.280Z,1.80
2023-03-11T14:35:57.070Z,1.70
2023-03-11T14:38:26.312Z,2.00
2023-03-11T14:40:57.966Z,1.80
2023-03-11T14:43:27.571Z,1.70
2023-03-11T14:45:56.418Z,2.20
2023-03-11T14:48:46.196Z,2.70
2023-03-11T14:51:24.040Z,3.00
2023-03-11T14:53:52.101Z,2.60
2023-03-11T14:56:21.842Z,3.20
2023-03-11T14:59:06.967Z,2.90
2023-03-11T15:01:41.062Z,2.90
2023-03-11T15:04:09.384Z,3.10
2023-03-11T15:06:39.945Z,3.40
2023-03-11T15:09:10.864Z,3.30
2023-03-11T15:11:45.085Z,3.70
2023-03-11T15:14:19.392Z,3.30
2023-03-11T15:16:47.437Z,3.20
2023-03-11T15:19:27.758Z,2.90
2023-03-11T15:21:58.695Z,3.70
2023-03-11T15:24:28.604Z,3.50
2023-03-11T15:26:59.921Z,3.50
2023-03-11T15:29:28.763Z,3.70
2023-03-11T15:32:00.608Z,3.70
2023-03-11T15:34:28.993Z,4.20
2023-03-11T15:36:57.546Z,3.60
2023-03-11T15:39:42.267Z,3.70
2023-03-11T15:42:13.789Z,3.90
2023-03-11T15:44:44.171Z,3.80
2023-03-11T15:47:15.392Z,4.10
2023-03-11T15:49:43.332Z,3.30
2023-03-11T15:52:13.935Z,4.10
2023-03-11T15:54:47.338Z,3.90
2023-03-11T15:57:26.231Z,3.10
2023-03-11T15:59:55.471Z,3.40
2023-03-11T16:02:25.801Z,4.00
2023-03-11T16:04:54.725Z,4.40
2023-03-11T16:07:38.130Z,4.00
2023-03-11T16:10:07.306Z,4.00
2023-03-11T16:12:35.318Z,3.50
2023-03-11T16:15:04.314Z,3.50
2023-03-11T16:17:48.531Z,3.30
2023-03-11T16:20:18.841Z,3.50
2023-03-11T16:22:47.955Z,4.10
2023-03-11T16:25:27.277Z,4.80
2023-03-11T16:27:55.583Z,4.90
2023-03-11T16:30:24.314Z,5.00
2023-03-11T16:32:52.246Z,4.20
2023-03-11T16:35:20.342Z,4.40
2023-03-11T16:37:48.520Z,4.30
2023-03-11T16:40:18.045Z,4.00
2023-03-11T16:42:46.327Z,4.50
2023-03-11T16:45:15.303Z,3.80
2023-03-11T16:47:43.412Z,4.10
2023-03-11T16:50:12.333Z,4.20
2023-03-11T16:52:40.437Z,3.80
2023-03-11T16:55:08.553Z,4.40
2023-03-11T16:57:38.018Z,4.00
2023-03-11T17:00:07.011Z,4.00
2023-03-11T17:02:34.945Z,4.20
2023-03-11T17:05:06.531Z,5.20
2023-03-11T17:07:35.667Z,4.50
2023-03-11T17:10:05.397Z,4.40
2023-03-11T17:12:33.455Z,5.60
2023-03-11T17:15:01.791Z,5.20
2023-03-11T17:17:29.692Z,4.70
2023-03-11T17:19:57.509Z,5.20
2023-03-11T17:22:25.431Z,4.60
2023-03-11T17:24:56.576Z,4.90
2023-03-11T17:27:24.671Z,5.60
2023-03-11T17:29:54.698Z,5.00
2023-03-11T17:32:22.694Z,5.70
2023-03-11T17:34:50.809Z,4.50
2023-03-11T17:37:18.976Z,5.30
2023-03-11T17:39:46.867Z,6.40
2023-03-11T17:42:15.152Z,5.30
2023-03-11T17:44:51.501Z,4.80
2023-03-11T17:47:20.570Z,5.30
2023-03-11T17:49:49.426Z,6.30
2023-03-11T17:52:18.011Z,4.90
2023-03-11T17:54:46.002Z,4.80
2023-03-11T17:57:14.181Z,5.50
2023-03-11T17:59:41.997Z,5.60
2023-03-11T18:02:13.145Z,5.70
2023-03-11T18:04:43.474Z,5.30
2023-03-11T18:07:12.593Z,6.50
2023-03-11T18:09:40.805Z,6.40
2023-03-11T18:12:08.826Z,7.10
2023-03-11T18:14:37.056Z,6.70
2023-03-11T18:17:05.326Z,8.90
2023-03-11T18:19:34.028Z,8.60
2023-03-11T18:24:48.403Z,7.50
2023-03-11T18:27:16.666Z,9.20
2023-03-11T18:29:45.089Z,9.90
2023-03-11T18:32:13.215Z,6.90
2023-03-11T18:34:41.883Z,9.60
2023-03-11T18:37:09.971Z,5.50
2023-03-11T18:39:38.250Z,6.20
2023-03-11T18:42:06.573Z,5.30
2023-03-11T18:44:36.847Z,5.40
2023-03-11T18:47:05.514Z,6.00
2023-03-11T18:49:33.689Z,7.30
2023-03-11T18:52:01.930Z,5.80
2023-03-11T18:54:29.863Z,6.90
2023-03-11T18:56:57.911Z,6.70
2023-03-11T18:59:27.874Z,7.50
2023-03-11T19:01:56.738Z,6.90
2023-03-11T19:04:25.162Z,7.10
2023-03-11T19:06:53.235Z,6.80
2023-03-11T19:09:21.906Z,7.00
2023-03-11T19:11:50.112Z,8.10
2023-03-11T19:14:18.251Z,7.40
2023-03-11T19:16:46.397Z,8.00
2023-03-11T19:19:14.892Z,8.90
2023-03-11T19:21:43.887Z,8.40
2023-03-11T19:24:12.780Z,8.30
2023-03-11T19:26:45.422Z,8.80
2023-03-11T19:29:14.934Z,9.40
2023-03-11T19:31:44.006Z,7.70
2023-03-11T19:34:12.531Z,7.30
2023-03-11T19:36:40.813Z,7.20
2023-03-11T19:39:09.259Z,7.60
2023-03-11T19:41:37.414Z,7.40
2023-03-11T19:44:05.629Z,7.40
2023-03-11T19:46:35.002Z,7.00
2023-03-11T19:49:04.172Z,7.00
2023-03-11T19:51:46.384Z,6.70
2023-03-11T19:54:17.257Z,6.50
2023-03-11T19:56:45.932Z,6.30
2023-03-11T19:59:14.388Z,6.40
2023-03-11T20:01:43.202Z,6.70
2023-03-11T20:04:11.555Z,7.00
2023-03-11T20:06:40.068Z,6.10
2023-03-11T20:09:08.233Z,6.00
2023-03-11T20:11:40.518Z,6.80
2023-03-11T20:14:10.391Z,6.50
2023-03-11T20:16:39.349Z,6.40
2023-03-11T20:19:07.668Z,5.80
2023-03-11T20:21:39.503Z,7.00
2023-03-11T20:24:08.729Z,7.00
2023-03-11T20:26:37.817Z,6.80
2023-03-11T20:29:06.235Z,7.40
2023-03-11T20:31:35.009Z,7.40
2023-03-11T20:34:03.658Z,7.70
2023-03-11T20:36:33.260Z,7.80
2023-03-11T20:39:02.189Z,7.40
2023-03-11T20:41:34.159Z,7.90
2023-03-11T20:44:02.265Z,8.20
2023-03-11T20:46:31.572Z,8.00
2023-03-11T20:49:03.228Z,7.60
2023-03-11T20:51:31.307Z,6.30
2023-03-11T20:53:59.464Z,7.60
2023-03-11T20:59:32.594Z,7.10
2023-03-11T21:02:03.781Z,7.50
2023-03-11T21:04:32.098Z,6.60
2023-03-11T21:07:01.675Z,6.60
2023-03-11T21:09:30.311Z,7.10
2023-03-11T21:11:58.554Z,6.90
2023-03-11T21:14:26.745Z,7.30
2023-03-11T21:16:55.065Z,7.10
2023-03-11T21:19:23.554Z,7.00
2023-03-11T21:21:51.745Z,7.00
2023-03-11T21:24:19.930Z,7.30
2023-03-11T21:26:48.905Z,6.40
2023-03-11T21:29:16.928Z,6.90
2023-03-11T21:31:45.046Z,6.20
2023-03-11T21:34:13.443Z,6.10
2023-03-11T21:36:41.619Z,6.10
2023-03-11T21:39:09.875Z,6.60
2023-03-11T21:41:46.855Z,6.50
2023-03-11T21:44:15.322Z,5.10
2023-03-11T21:46:46.672Z,5.80
2023-03-11T21:49:15.514Z,5.60
2023-03-11T21:51:44.206Z,5.70
2023-03-11T21:54:13.148Z,5.40
2023-03-11T21:56:42.286Z,5.50
2023-03-11T21:59:10.843Z,5.40
2023-03-11T22:01:40.241Z,5.20
2023-03-11T22:04:10.328Z,5.30
2023-03-11T22:06:38.488Z,4.90
2023-03-11T22:09:06.547Z,4.90
2023-03-11T22:11:34.686Z,4.60
2023-03-11T22:14:02.795Z,5.00
2023-03-11T22:16:30.949Z,4.80
2023-03-11T22:18:59.305Z,5.20
2023-03-11T22:21:27.452Z,5.00
2023-03-11T22:23:55.902Z,5.00
2023-03-11T22:26:23.991Z,5.10
2023-03-11T22:28:52.977Z,5.70
2023-03-11T22:31:21.327Z,5.10
2023-03-11T22:33:49.323Z,6.30
2023-03-11T22:36:17.421Z,5.30
2023-03-11T22:38:45.609Z,5.50
2023-03-11T22:41:14.656Z,6.60
2023-03-11T22:43:42.732Z,6.20
2023-03-11T22:46:11.364Z,7.00
2023-03-11T22:48:39.475Z,6.50
2023-03-11T22:51:07.590Z,7.00
2023-03-11T22:53:35.600Z,8.10
2023-03-11T22:56:07.817Z,7.40
2023-03-11T22:58:35.978Z,7.10
2023-03-11T23:01:04.653Z,7.20
2023-03-11T23:03:33.343Z,6.90
2023-03-11T23:06:02.527Z,7.00
2023-03-11T23:08:30.535Z,7.20
2023-03-11T23:11:02.183Z,6.70
2023-03-11T23:13:30.907Z,6.60
2023-03-11T23:16:03.225Z,6.40
2023-03-11T23:18:31.316Z,7.20
2023-03-11T23:20:59.467Z,6.50
2023-03-11T23:29:59.334Z,6.10
2023-03-11T23:32:27.490Z,6.20
2023-03-11T23:35:13.100Z,6.10
2023-03-11T23:37:41.055Z,5.90
2023-03-11T23:40:11.636Z,5.40
2023-03-11T23:42:39.540Z,5.40
2023-03-11T23:45:08.025Z,6.50
2023-03-11T23:47:35.899Z,5.60
2023-03-11T23:50:04.025Z,6.60
2023-03-11T23:52:31.878Z,5.60
2023-03-11T23:55:00.431Z,4.90
2023-03-11T23:57:28.416Z,5.20
2023-03-11T23:59:56.325Z,5.10
